createdAt,value
2023-01-17T00:00:48.022Z,87.09
2023-01-17T00:06:08.201Z,87.45
2023-01-17T00:11:09.777Z,87.20
2023-01-17T00:16:11.263Z,87.01
2023-01-17T00:21:31.313Z,87.15
2023-01-17T00:26:32.790Z,87.32
2023-01-17T00:31:34.214Z,87.96
2023-01-17T00:36:35.674Z,88.44
2023-01-17T00:41:37.084Z,89.51
2023-01-17T00:46:57.194Z,89.79
2023-01-17T00:52:16.999Z,88.47
2023-01-17T00:57:36.928Z,89.07
2023-01-17T01:02:57.622Z,88.60
2023-01-17T01:08:17.642Z,89.52
2023-01-17T01:13:41.404Z,89.94
2023-01-17T01:19:01.381Z,89.66
2023-01-17T01:24:21.342Z,89.74
2023-01-17T01:29:41.454Z,89.05
2023-01-17T01:34:42.873Z,91.34
2023-01-17T01:39:44.282Z,90.65
2023-01-17T01:44:48.572Z,92.80
2023-01-17T01:49:50.979Z,91.07
2023-01-17T01:54:58.821Z,90.06
2023-01-17T02:00:08.778Z,89.94
2023-01-17T02:05:12.509Z,88.18
2023-01-17T02:10:13.946Z,88.21
2023-01-17T02:15:15.455Z,87.08
2023-01-17T02:20:38.035Z,86.32
2023-01-17T02:26:14.541Z,85.48
2023-01-17T02:31:28.100Z,84.81
2023-01-17T02:36:36.239Z,84.53
2023-01-17T02:41:43.328Z,83.77
2023-01-17T02:46:49.692Z,83.84
2023-01-17T02:52:10.827Z,83.59
2023-01-17T02:57:42.637Z,83.72
2023-01-17T03:02:52.252Z,83.06
2023-01-17T03:07:54.944Z,82.89
2023-01-17T03:12:58.542Z,83.81
2023-01-17T03:18:04.707Z,83.11
2023-01-17T03:23:06.242Z,81.88
2023-01-17T03:28:07.662Z,82.40
2023-01-17T03:33:09.184Z,81.74
2023-01-17T03:38:10.618Z,81.48
2023-01-17T03:43:12.135Z,80.58
2023-01-17T03:48:13.650Z,81.29
2023-01-17T03:53:15.076Z,81.97
2023-01-17T03:58:16.519Z,82.93
2023-01-17T04:03:17.964Z,82.82
2023-01-17T04:08:19.613Z,83.20
2023-01-17T04:13:21.013Z,83.15
2023-01-17T04:18:23.824Z,82.94
2023-01-17T04:23:25.337Z,83.08
2023-01-17T04:28:26.877Z,82.78
2023-01-17T04:33:29.371Z,81.78
2023-01-17T04:38:30.791Z,81.81
2023-01-17T04:43:32.625Z,81.63
2023-01-17T04:48:34.043Z,80.99
2023-01-17T04:53:35.570Z,81.09
2023-01-17T04:58:38.197Z,80.74
2023-01-17T05:03:39.679Z,80.93
2023-01-17T05:08:41.524Z,81.37
2023-01-17T05:13:42.925Z,81.52
2023-01-17T05:18:44.338Z,81.10
2023-01-17T05:23:46.072Z,80.66
2023-01-17T05:28:47.504Z,81.26
2023-01-17T05:33:48.955Z,80.89
2023-01-17T05:38:50.425Z,80.27
2023-01-17T05:43:51.868Z,80.39
2023-01-17T05:48:53.279Z,79.53
2023-01-17T05:53:54.936Z,80.30
2023-01-17T05:58:56.347Z,80.26
2023-01-17T06:03:57.969Z,80.07
2023-01-17T06:08:59.418Z,77.71
2023-01-17T06:14:00.845Z,77.05
2023-01-17T06:19:02.413Z,76.01
2023-01-17T06:24:04.446Z,76.10
2023-01-17T06:29:05.925Z,75.67
2023-01-17T06:34:07.458Z,74.31
2023-01-17T06:39:10.223Z,74.31
2023-01-17T06:44:11.761Z,74.41
2023-01-17T06:49:13.218Z,73.26
2023-01-17T06:54:14.766Z,72.64
2023-01-17T06:59:16.179Z,73.43
2023-01-17T07:04:17.611Z,74.14
2023-01-17T07:09:19.013Z,73.28
2023-01-17T07:14:20.535Z,73.08
2023-01-17T07:19:22.277Z,73.63
2023-01-17T07:24:23.675Z,73.57
2023-01-17T07:29:25.254Z,73.80
2023-01-17T07:34:26.657Z,73.67
2023-01-17T07:39:28.067Z,73.09
2023-01-17T07:44:29.556Z,74.12
2023-01-17T07:49:31.072Z,73.02
2023-01-17T07:54:32.815Z,73.88
2023-01-17T07:59:34.594Z,73.85
2023-01-17T08:04:36.092Z,74.03
2023-01-17T08:09:37.524Z,72.41
2023-01-17T08:14:38.946Z,73.65
2023-01-17T08:19:40.602Z,74.12
2023-01-17T08:24:42.146Z,73.95
2023-01-17T08:29:47.096Z,73.22
2023-01-17T08:34:48.812Z,73.91
2023-01-17T08:39:50.357Z,72.40
2023-01-17T08:44:51.797Z,72.65
2023-01-17T08:49:53.681Z,71.16
2023-01-17T08:54:55.264Z,71.85
2023-01-17T08:59:56.661Z,71.06
2023-01-17T09:04:58.155Z,72.17
2023-01-17T09:09:59.552Z,71.89
2023-01-17T09:15:02.362Z,70.92
2023-01-17T09:20:04.080Z,70.73
2023-01-17T09:25:08.998Z,69.22
2023-01-17T09:30:11.033Z,68.34
2023-01-17T09:35:13.582Z,64.69
2023-01-17T09:40:19.480Z,63.59
2023-01-17T09:45:21.354Z,64.41
2023-01-17T09:50:27.072Z,60.87
2023-01-17T09:55:48.686Z,61.27
2023-01-17T10:01:06.807Z,57.57
2023-01-17T10:06:30.180Z,59.07
2023-01-17T10:11:49.583Z,58.30
2023-01-17T10:17:06.011Z,57.55
2023-01-17T10:22:25.394Z,57.28
2023-01-17T10:27:35.239Z,56.08
2023-01-17T10:32:46.427Z,56.50
2023-01-17T10:37:49.947Z,56.92
2023-01-17T10:43:19.423Z,56.52
2023-01-17T10:48:38.737Z,57.18
2023-01-17T10:53:48.480Z,57.37
2023-01-17T10:58:54.544Z,58.12
2023-01-17T11:03:56.182Z,59.75
2023-01-17T11:09:03.062Z,59.53
2023-01-17T11:14:14.210Z,58.91
2023-01-17T11:19:30.433Z,59.05
2023-01-17T11:24:34.558Z,59.32
2023-01-17T11:29:40.616Z,59.86
2023-01-17T11:34:42.125Z,60.64
2023-01-17T11:39:44.507Z,59.42
2023-01-17T11:44:46.071Z,59.23
2023-01-17T11:49:49.028Z,59.12
2023-01-17T11:54:53.986Z,56.17
2023-01-17T12:00:08.824Z,58.19
2023-01-17T12:05:23.564Z,55.06
2023-01-17T12:10:43.287Z,55.67
2023-01-17T12:16:31.740Z,56.16
2023-01-17T12:21:38.537Z,55.13
2023-01-17T12:27:06.179Z,55.52
2023-01-17T12:32:38.424Z,56.31
2023-01-17T12:37:43.975Z,54.20
2023-01-17T12:43:08.111Z,55.56
2023-01-17T12:48:16.591Z,55.27
2023-01-17T12:53:56.450Z,56.18
2023-01-17T12:59:35.096Z,56.75
2023-01-17T13:04:57.659Z,55.53
2023-01-17T13:10:20.164Z,54.13
2023-01-17T13:15:26.991Z,54.02
2023-01-17T13:20:49.166Z,53.33
2023-01-17T13:25:50.901Z,54.06
2023-01-17T13:31:07.876Z,55.26
2023-01-17T13:36:25.776Z,55.08
2023-01-17T13:41:45.094Z,55.63
2023-01-17T13:47:27.462Z,56.13
2023-01-17T13:52:33.209Z,56.27
2023-01-17T13:57:42.191Z,54.65
2023-01-17T14:02:43.852Z,51.75
2023-01-17T14:08:07.888Z,52.52
2023-01-17T14:13:44.653Z,51.42
2023-01-17T14:18:46.153Z,51.64
2023-01-17T14:23:50.287Z,51.73
2023-01-17T14:28:52.460Z,52.10
2023-01-17T14:33:54.264Z,52.78
2023-01-17T14:38:55.766Z,54.19
2023-01-17T14:43:59.545Z,54.34
2023-01-17T14:49:04.275Z,56.09
2023-01-17T14:54:21.131Z,56.57
2023-01-17T14:59:22.771Z,56.43
2023-01-17T15:04:27.341Z,55.83
2023-01-17T15:09:35.072Z,56.45
2023-01-17T15:14:39.909Z,56.04
2023-01-17T15:19:43.718Z,56.01
2023-01-17T15:24:46.921Z,55.95
2023-01-17T15:29:48.847Z,55.16
2023-01-17T15:34:51.521Z,55.74
2023-01-17T15:40:03.244Z,56.02
2023-01-17T15:45:07.597Z,55.76
2023-01-17T15:50:25.687Z,56.62
2023-01-17T15:55:35.525Z,56.14
2023-01-17T16:00:39.165Z,56.47
2023-01-17T16:05:44.069Z,56.41
2023-01-17T16:10:45.526Z,56.14
2023-01-17T16:15:47.140Z,56.05
2023-01-17T16:20:55.117Z,56.70
2023-01-17T16:25:56.625Z,56.05
2023-01-17T16:30:58.139Z,57.01
2023-01-17T16:35:59.659Z,57.07
2023-01-17T16:41:03.958Z,56.97
2023-01-17T16:46:05.934Z,56.91
2023-01-17T16:51:08.060Z,57.28
2023-01-17T16:56:13.635Z,57.11
2023-01-17T17:01:17.624Z,57.29
2023-01-17T17:06:19.126Z,58.18
2023-01-17T17:11:25.510Z,58.22
2023-01-17T17:16:32.770Z,58.85
2023-01-17T17:21:36.787Z,58.60
2023-01-17T17:26:39.261Z,58.54
2023-01-17T17:31:42.934Z,58.58
2023-01-17T17:36:44.520Z,58.61
2023-01-17T17:41:46.082Z,59.34
2023-01-17T17:46:49.343Z,60.22
2023-01-17T17:51:50.805Z,60.12
2023-01-17T17:56:52.211Z,59.89
2023-01-17T18:01:53.924Z,60.48
2023-01-17T18:06:57.281Z,60.06
2023-01-17T18:11:58.859Z,60.65
2023-01-17T18:17:00.358Z,60.80
2023-01-17T18:22:03.447Z,61.22
2023-01-17T18:27:05.417Z,61.90
2023-01-17T18:32:06.938Z,61.85
2023-01-17T18:37:08.398Z,62.02
2023-01-17T18:42:11.895Z,62.18
2023-01-17T18:47:13.435Z,61.61
2023-01-17T18:52:15.018Z,62.23
2023-01-17T18:57:16.482Z,62.72
2023-01-17T19:02:19.532Z,62.86
2023-01-17T19:07:21.668Z,63.65
2023-01-17T19:12:23.112Z,63.17
2023-01-17T19:17:24.522Z,63.81
2023-01-17T19:22:25.939Z,63.54
2023-01-17T19:27:27.449Z,63.91
2023-01-17T19:32:28.946Z,64.85
2023-01-17T19:37:30.670Z,64.83
2023-01-17T19:42:32.108Z,64.65
2023-01-17T19:47:34.021Z,64.71
2023-01-17T19:52:36.081Z,64.90
2023-01-17T19:57:37.551Z,65.35
2023-01-17T20:02:39.505Z,65.33
2023-01-17T20:07:40.956Z,65.22
2023-01-17T20:12:42.442Z,65.54
2023-01-17T20:17:44.167Z,65.39
2023-01-17T20:22:45.996Z,66.04
2023-01-17T20:27:47.404Z,65.69
2023-01-17T20:32:48.834Z,66.37
2023-01-17T20:37:53.431Z,66.63
2023-01-17T20:42:54.852Z,66.49
2023-01-17T20:47:56.519Z,67.12
2023-01-17T20:52:58.166Z,67.24
2023-01-17T20:57:59.779Z,67.87
2023-01-17T21:03:01.650Z,67.50
2023-01-17T21:08:03.918Z,68.20
2023-01-17T21:13:05.327Z,68.28
2023-01-17T21:18:06.930Z,68.19
2023-01-17T21:23:10.130Z,68.46
2023-01-17T21:28:11.612Z,68.46
2023-01-17T21:33:13.230Z,68.33
2023-01-17T21:38:14.921Z,68.14
2023-01-17T21:43:16.365Z,68.32
2023-01-17T21:48:17.794Z,68.97
2023-01-17T21:53:19.272Z,68.98
2023-01-17T21:58:39.084Z,68.85
2023-01-17T22:03:40.488Z,69.14
2023-01-17T22:08:41.945Z,69.06
2023-01-17T22:13:44.631Z,69.34
2023-01-17T22:18:46.867Z,69.85
2023-01-17T22:23:51.604Z,70.49
2023-01-17T22:28:54.074Z,70.56
2023-01-17T22:34:01.704Z,70.90
2023-01-17T22:39:03.241Z,70.85
2023-01-17T22:44:08.479Z,71.55
2023-01-17T22:49:13.416Z,71.49
2023-01-17T22:54:14.921Z,71.63
2023-01-17T22:59:16.421Z,71.92
2023-01-17T23:04:17.886Z,71.83
2023-01-17T23:09:19.311Z,72.68
2023-01-17T23:14:23.432Z,72.04
2023-01-17T23:19:26.998Z,73.89
2023-01-17T23:24:28.494Z,73.57
2023-01-17T23:29:29.896Z,72.94
2023-01-17T23:34:31.329Z,73.36
2023-01-17T23:39:32.762Z,73.47
2023-01-17T23:44:34.167Z,73.42
2023-01-17T23:49:35.577Z,73.56
2023-01-17T23:54:38.669Z,73.59
2023-01-17T23:59:40.095Z,73.67
